Flight Track Log - Related Links

Times and Time Zones

All times are in EDT time to prevent confusion due to time zone crossing. See the KAP927 flight status page for this flight to view local times or setup timezone preferences in your user account.

Time Position Orientation Groundspeed Altitude Reporting Facility
EDT Latitude Longitude Course Direction KTS MPH feet Rate Location/Type
Wed 02:51:02 PM 42.7903 -73.8067 355° North 121 139 1,300  Level Boston Center
Wed 02:52:03 PM 42.8194 -73.8158 347° North 116 133 1,800 425 Climbing Boston Center
Wed 02:53:09 PM 42.8567 -73.8278 347° North 114 131 2,200 446 Climbing Boston Center
Wed 02:54:04 PM 42.8858 -73.8286 359° North 117 135 2,700 600 Climbing Boston Center
Wed 02:54:59 PM 42.9128 -73.8406 342° North 116 133 3,300 522 Climbing Boston Center
Wed 02:55:59 PM 42.9461 -73.8442 355° North 111 128 3,700 446 Climbing Boston Center
Wed 02:57:00 PM 42.9753 -73.8533 347° North 113 130 4,200 492 Climbing Boston Center
Wed 02:58:01 PM 43.0083 -73.8597 352° North 113 130 4,700 496 Climbing Boston Center
Wed 02:59:01 PM 43.0397 -73.8661 352° North 114 131 5,200 446 Climbing Boston Center
Wed 03:00:02 PM 43.0708 -73.8783 344° North 116 133 5,600 381 Climbing Boston Center
Wed 03:01:07 PM 43.0997 -73.8875 347° North 116 133 6,000 384 Climbing Boston Center
Wed 03:02:07 PM 43.1372 -73.8969 350° North 121 139 6,400 400 Climbing Boston Center
Wed 03:03:07 PM 43.1664 -73.9033 351° North 126 145 6,800 500 Climbing Boston Center
Wed 03:04:07 PM 43.2036 -73.9128 350° North 126 145 7,400 500 Climbing Boston Center
Wed 03:05:07 PM 43.2369 -73.9192 352° North 126 145 7,800 450 Climbing Boston Center
Wed 03:06:07 PM 43.2722 -73.9314 346° North 126 145 8,300 409 Climbing Boston Center
Wed 03:07:19 PM 43.3033 -73.9408 348° North 120 138 8,700 318 Climbing Boston Center
Wed 03:08:19 PM 43.3492 -73.9447 356° North 125 144 9,000 200 Climbing Boston Center
Wed 03:09:19 PM 43.3928 -73.9544 351° North 144 166 9,100 50 Climbing Boston Center
Wed 03:10:19 PM 43.4386 -73.9614 354° North 151 174 9,100  Level Boston Center
Wed 03:11:19 PM 43.4842 -73.9767 346° North 164 189 9,100  Level Boston Center
Wed 03:12:19 PM 43.5300 -73.9894 349° North 164 189 9,100  Level Boston Center
Wed 03:13:19 PM 43.5733 -74.0019 348° North 159 183 9,100  Level Boston Center
Wed 03:14:19 PM 43.6169 -74.0144 348° North 159 183 9,100  Level Boston Center
Wed 03:15:19 PM 43.6606 -74.0242 351° North 159 183 9,100  Level Boston Center
Wed 03:16:19 PM 43.7000 -74.0367 347° North 161 185 9,100  Level Boston Center
Wed 03:17:19 PM 43.7436 -74.0467 351° North 161 185 9,100  Level Boston Center
Wed 03:18:19 PM 43.7894 -74.0564 351° North 161 185 9,100  Level Boston Center
Wed 03:19:19 PM 43.8331 -74.0692 348° North 161 185 9,100  Level Boston Center
Wed 03:20:19 PM 43.8767 -74.0819 348° North 161 185 9,100  Level Boston Center
Wed 03:21:19 PM 43.9203 -74.0917 351° North 161 185 9,100 -50 Level Boston Center
Wed 03:22:19 PM 43.9617 -74.1014 350° North 161 185 9,000 -200 Descending Boston Center
Wed 03:23:19 PM 44.0136 -74.1144 350° North 161 185 8,700 -350 Descending Boston Center
Wed 03:24:19 PM 44.0511 -74.1242 349° North 161 185 8,300 -300 Descending Boston Center
Wed 03:25:19 PM 44.1008 -74.1372 349° North 166 191 8,100 -100 Descending Boston Center
Wed 03:26:19 PM 44.1467 -74.1472 351° North 166 191 8,100  Level Boston Center
Wed 03:27:19 PM 44.1900 -74.1600 348° North 161 185 8,100  Level Boston Center
Wed 03:28:19 PM 44.2317 -74.1669 353° North 161 185 8,100 -150 Level Boston Center
Wed 03:29:19 PM 44.2753 -74.1769 351° North 156 180 7,800 -450 Descending Boston Center
Wed 03:30:19 PM 44.3272 -74.1872 352° North 167 192 7,200 -350 Descending Boston Center
Wed 03:31:19 PM 44.3731 -74.1972 351° North 172 198 7,100 -50 Descending Boston Center
Wed 03:32:19 PM 44.4142 -74.2333 328° Northwest 165 190 7,100  Level Boston Center
Wed 03:33:19 PM 44.4469 -74.2661 324° Northwest 153 176 7,100  Level Boston Center
Wed 03:34:19 PM 44.4858 -74.3053 324° Northwest 159 183 7,100  Level Boston Center
Wed 03:35:19 PM 44.5036 -74.3611 294° West 149 171 7,100  Level Boston Center
Wed 03:36:19 PM 44.5172 -74.4169 289° West 149 171 7,100  Level Boston Center
Wed 03:37:19 PM 44.5331 -74.4700 293° West 149 171 7,100  Level Boston Center
Wed 03:38:19 PM 44.5467 -74.5200 291° West 149 171 7,100  Level Boston Center
Wed 03:39:19 PM 44.5603 -74.5728 290° West 149 171 7,100  Level Boston Center
Wed 03:40:19 PM 44.5761 -74.6286 292° West 149 171 7,100 -250 Level Boston Center
Wed 03:41:19 PM 44.5936 -74.6906 292° West 149 171 6,600 -500 Descending Boston Center
Wed 03:42:19 PM 44.6133 -74.7497 295° West 157 181 6,100 -500 Descending Boston Center
Wed 03:43:19 PM 44.6328 -74.8175 292° West 170 196 5,600 -450 Descending Boston Center
Wed 03:44:19 PM 44.6522 -74.8825 293° West 178 205 5,200 -450 Descending Boston Center
Wed 03:45:19 PM 44.6697 -74.9417 293° West 172 198 4,700 -500 Descending Boston Center
Wed 03:46:19 PM 44.6889 -75.0097 292° West 172 198 4,200 -450 Descending Boston Center
Wed 03:47:19 PM 44.7083 -75.0806 291° West 172 198 3,800 -400 Descending Boston Center

Login

Don't have an account? Register now (free) for customized features, flight alerts, and more!